createdAt,value
2022-08-20T00:02:05.105Z,66.13
2022-08-20T00:05:07.670Z,66.20
2022-08-20T00:07:54.899Z,66.22
2022-08-20T00:10:42.452Z,66.36
2022-08-20T00:14:01.012Z,66.91
2022-08-20T00:16:47.072Z,67.11
2022-08-20T00:19:40.644Z,67.33
2022-08-20T00:22:39.818Z,67.44
2022-08-20T00:25:13.032Z,67.55
2022-08-20T00:27:55.882Z,67.85
2022-08-20T00:30:56.202Z,67.97
2022-08-20T00:33:58.985Z,68.47
2022-08-20T00:39:40.902Z,68.47
2022-08-20T00:42:39.512Z,68.75
2022-08-20T00:45:20.498Z,68.85
2022-08-20T00:48:01.964Z,69.11
2022-08-20T00:50:52.799Z,69.02
2022-08-20T00:53:30.021Z,69.13
2022-08-20T00:56:20.228Z,68.71
2022-08-20T00:59:01.431Z,68.74
2022-08-20T01:01:54.836Z,68.79
2022-08-20T01:04:40.848Z,69.04
2022-08-20T01:07:35.805Z,69.01
2022-08-20T01:10:36.692Z,68.84
2022-08-20T01:13:12.685Z,69.07
2022-08-20T01:15:52.316Z,68.94
2022-08-20T01:18:25.373Z,68.97
2022-08-20T01:21:07.237Z,69.28
2022-08-20T01:23:56.833Z,69.37
2022-08-20T01:26:55.870Z,69.30
2022-08-20T01:29:31.134Z,69.27
2022-08-20T01:32:02.242Z,69.37
2022-08-20T01:34:30.869Z,69.84
2022-08-20T01:37:14.728Z,70.03
2022-08-20T01:40:01.469Z,70.28
2022-08-20T01:43:06.996Z,70.42
2022-08-20T01:46:02.400Z,70.69
2022-08-20T01:49:13.604Z,70.54
2022-08-20T01:51:55.739Z,70.58
2022-08-20T01:54:34.319Z,70.62
2022-08-20T01:57:18.916Z,70.77
2022-08-20T02:00:01.953Z,70.72
2022-08-20T02:02:47.982Z,70.44
2022-08-20T02:05:44.620Z,70.65
2022-08-20T02:08:25.676Z,70.78
2022-08-20T02:11:22.399Z,71.13
2022-08-20T02:14:26.609Z,70.98
2022-08-20T02:17:23.510Z,71.21
2022-08-20T02:19:55.223Z,71.62
2022-08-20T02:22:39.785Z,71.54
2022-08-20T02:25:23.118Z,71.90
2022-08-20T02:28:13.222Z,72.28
2022-08-20T02:30:49.294Z,72.39
2022-08-20T02:33:35.874Z,73.11
2022-08-20T02:36:12.394Z,72.99
2022-08-20T02:38:44.654Z,73.33
2022-08-20T02:41:24.559Z,73.48
2022-08-20T02:44:10.911Z,73.69
2022-08-20T02:47:18.718Z,73.53
2022-08-20T02:49:53.469Z,73.81
2022-08-20T02:52:35.544Z,73.82
2022-08-20T02:55:28.114Z,74.04
2022-08-20T02:58:17.037Z,74.11
2022-08-20T03:00:54.894Z,74.37
2022-08-20T03:03:49.971Z,74.88
2022-08-20T03:06:27.142Z,75.02
2022-08-20T03:09:08.882Z,75.03
2022-08-20T03:11:47.710Z,75.68
2022-08-20T03:14:47.448Z,75.39
2022-08-20T03:17:30.183Z,75.70
2022-08-20T03:20:43.291Z,76.10
2022-08-20T03:23:25.472Z,75.90
2022-08-20T03:26:13.020Z,75.76
2022-08-20T03:28:55.928Z,75.84
2022-08-20T03:31:46.168Z,76.09
2022-08-20T03:34:34.263Z,76.31
2022-08-20T03:37:11.800Z,76.22
2022-08-20T03:40:04.080Z,76.47
2022-08-20T03:42:42.698Z,75.94
2022-08-20T03:45:29.829Z,76.14
2022-08-20T03:48:22.048Z,76.39
2022-08-20T03:51:17.832Z,76.07
2022-08-20T03:53:45.719Z,76.67
2022-08-20T03:56:30.220Z,77.03
2022-08-20T03:59:15.055Z,77.21
2022-08-20T04:01:54.523Z,76.83
2022-08-20T04:04:44.418Z,76.80
2022-08-20T04:07:26.187Z,77.23
2022-08-20T04:09:56.178Z,77.23
2022-08-20T04:13:16.054Z,76.88
2022-08-20T04:15:54.176Z,77.24
2022-08-20T04:18:33.480Z,77.06
2022-08-20T04:21:09.663Z,77.96
2022-08-20T04:23:55.520Z,77.89
2022-08-20T04:26:53.130Z,77.75
2022-08-20T04:29:55.874Z,77.68
2022-08-20T04:32:28.987Z,77.47
2022-08-20T04:35:12.206Z,77.54
2022-08-20T04:37:46.026Z,77.65
2022-08-20T04:40:38.580Z,77.54
2022-08-20T04:43:28.473Z,77.53
2022-08-20T04:46:24.028Z,77.61
2022-08-20T04:48:54.271Z,77.56
2022-08-20T04:51:37.063Z,77.65
2022-08-20T04:54:22.075Z,77.46
2022-08-20T04:57:10.684Z,76.93
2022-08-20T04:59:53.886Z,77.32
2022-08-20T05:02:26.322Z,77.19
2022-08-20T05:04:59.400Z,77.32
2022-08-20T05:07:40.199Z,76.98
2022-08-20T05:10:28.276Z,76.95
2022-08-20T05:13:22.141Z,76.63
2022-08-20T05:16:26.783Z,76.49
2022-08-20T05:19:12.486Z,76.57
2022-08-20T05:22:02.743Z,76.66
2022-08-20T05:25:10.714Z,76.37
2022-08-20T05:27:49.060Z,76.93
2022-08-20T05:30:34.404Z,76.75
2022-08-20T05:33:22.787Z,76.68
2022-08-20T05:36:32.623Z,77.15
2022-08-20T05:39:23.803Z,76.74
2022-08-20T05:41:53.048Z,76.74
2022-08-20T05:44:31.765Z,76.59
2022-08-20T05:47:01.741Z,76.60
2022-08-20T05:50:06.701Z,76.24
2022-08-20T05:52:54.819Z,76.19
2022-08-20T05:55:50.539Z,75.65
2022-08-20T05:58:29.090Z,76.21
2022-08-20T06:01:18.347Z,76.25
2022-08-20T06:04:19.594Z,76.11
2022-08-20T06:07:16.439Z,76.03
2022-08-20T06:10:00.443Z,76.00
2022-08-20T06:12:32.771Z,75.85
2022-08-20T06:15:23.697Z,76.07
2022-08-20T06:18:39.205Z,76.02
2022-08-20T06:21:18.060Z,75.79
2022-08-20T06:23:59.541Z,75.83
2022-08-20T06:26:39.048Z,75.53
2022-08-20T06:29:27.559Z,75.80
2022-08-20T06:32:11.402Z,75.68
2022-08-20T06:34:57.792Z,75.89
2022-08-20T06:37:33.804Z,75.71
2022-08-20T06:40:23.181Z,75.70
2022-08-20T06:42:59.665Z,75.65
2022-08-20T06:45:29.644Z,75.40
2022-08-20T06:48:18.036Z,75.24
2022-08-20T06:51:14.435Z,74.88
2022-08-20T06:53:56.546Z,74.77
2022-08-20T06:56:45.356Z,74.81
2022-08-20T07:00:00.653Z,74.83
2022-08-20T07:02:30.042Z,75.09
2022-08-20T07:05:32.580Z,74.95
2022-08-20T07:08:16.534Z,74.59
2022-08-20T07:11:09.990Z,74.44
2022-08-20T07:14:01.067Z,74.73
2022-08-20T07:17:06.802Z,74.34
2022-08-20T07:20:10.633Z,74.43
2022-08-20T07:23:20.289Z,73.13
2022-08-20T07:26:23.078Z,73.47
2022-08-20T07:29:00.226Z,73.16
2022-08-20T07:31:48.265Z,73.01
2022-08-20T07:34:43.663Z,72.57
2022-08-20T07:37:57.250Z,72.72
2022-08-20T07:40:57.170Z,72.74
2022-08-20T07:46:54.641Z,72.72
2022-08-20T07:49:33.205Z,72.44
2022-08-20T07:52:36.217Z,72.51
2022-08-20T07:55:13.411Z,72.11
2022-08-20T07:57:57.049Z,72.17
2022-08-20T08:00:47.259Z,71.60
2022-08-20T08:03:40.442Z,71.20
2022-08-20T08:06:34.751Z,70.52
2022-08-20T08:09:20.240Z,70.23
2022-08-20T08:11:59.537Z,70.10
2022-08-20T08:15:03.176Z,69.99
2022-08-20T08:17:52.334Z,68.68
2022-08-20T08:20:46.887Z,67.20
2022-08-20T08:23:24.794Z,68.04
2022-08-20T08:26:33.364Z,67.56
2022-08-20T08:29:15.879Z,67.72
2022-08-20T08:34:57.908Z,65.73
2022-08-20T08:37:30.486Z,65.53
2022-08-20T08:40:27.312Z,65.32
2022-08-20T08:43:21.425Z,65.05
2022-08-20T08:46:13.670Z,64.27
2022-08-20T08:48:54.207Z,63.84
2022-08-20T08:51:33.689Z,63.82
2022-08-20T08:54:08.071Z,63.87
2022-08-20T08:56:49.817Z,63.48
2022-08-20T08:59:56.216Z,62.89
2022-08-20T09:02:51.504Z,61.83
2022-08-20T09:05:24.453Z,62.42
2022-08-20T09:08:11.678Z,62.48
2022-08-20T09:10:56.526Z,62.57
2022-08-20T09:13:46.587Z,61.15
2022-08-20T09:16:22.643Z,62.00
2022-08-20T09:19:11.069Z,62.01
2022-08-20T09:22:07.535Z,62.19
2022-08-20T09:25:03.383Z,61.74
2022-08-20T09:27:51.740Z,61.77
2022-08-20T09:30:46.190Z,62.08
2022-08-20T09:33:23.353Z,62.04
2022-08-20T09:36:33.950Z,60.67
2022-08-20T09:39:14.629Z,60.95
2022-08-20T09:42:10.460Z,60.97
2022-08-20T09:44:50.690Z,59.13
2022-08-20T09:47:55.094Z,59.09
2022-08-20T09:51:06.286Z,57.66
2022-08-20T09:53:45.136Z,58.42
2022-08-20T09:56:44.825Z,57.54
2022-08-20T09:59:20.753Z,57.23
2022-08-20T10:02:00.945Z,55.45
2022-08-20T10:04:42.503Z,52.96
2022-08-20T10:07:37.224Z,51.79
2022-08-20T10:10:08.885Z,51.37
2022-08-20T10:12:56.302Z,52.71
2022-08-20T10:15:33.345Z,51.57
2022-08-20T10:18:07.345Z,51.32
2022-08-20T10:20:51.127Z,51.22
2022-08-20T10:23:59.923Z,48.84
2022-08-20T10:26:56.142Z,46.90
2022-08-20T10:29:46.852Z,45.47
2022-08-20T10:32:34.285Z,46.22
2022-08-20T10:35:11.014Z,47.14
2022-08-20T10:37:55.542Z,47.17
2022-08-20T10:40:39.399Z,45.71
2022-08-20T10:43:29.015Z,44.99
2022-08-20T10:46:10.099Z,44.59
2022-08-20T10:48:50.905Z,44.94
2022-08-20T10:51:40.890Z,45.08
2022-08-20T10:54:28.086Z,44.35
2022-08-20T10:57:03.169Z,44.12
2022-08-20T10:59:51.779Z,44.66
2022-08-20T11:02:27.818Z,42.60
2022-08-20T11:05:19.201Z,43.70
2022-08-20T11:08:11.711Z,42.74
2022-08-20T11:10:43.924Z,42.61
2022-08-20T11:13:34.095Z,41.51
2022-08-20T11:16:34.541Z,42.28
2022-08-20T11:19:27.247Z,42.16
2022-08-20T11:22:40.558Z,41.85
2022-08-20T11:25:36.190Z,41.69
2022-08-20T11:28:32.243Z,41.42
2022-08-20T11:31:13.001Z,40.52
2022-08-20T11:33:46.861Z,40.54
2022-08-20T11:36:38.328Z,39.85
2022-08-20T11:39:25.909Z,40.34
2022-08-20T11:42:25.128Z,40.04
2022-08-20T11:44:59.170Z,40.72
2022-08-20T11:47:38.216Z,40.52
2022-08-20T11:50:36.328Z,40.75
2022-08-20T11:53:08.038Z,40.75
2022-08-20T11:56:03.827Z,40.27
2022-08-20T11:58:39.371Z,40.01
2022-08-20T12:02:01.950Z,40.61
2022-08-20T12:05:09.289Z,41.25
2022-08-20T12:08:26.893Z,40.42
2022-08-20T12:11:23.055Z,40.81
2022-08-20T12:13:56.777Z,40.53
2022-08-20T12:16:27.334Z,39.55
2022-08-20T12:19:26.820Z,39.85
2022-08-20T12:22:35.821Z,40.47
2022-08-20T12:25:10.813Z,40.84
2022-08-20T12:28:26.568Z,40.68
2022-08-20T12:31:06.625Z,40.66
2022-08-20T12:33:46.885Z,40.20
2022-08-20T12:36:49.974Z,40.03
2022-08-20T12:39:35.458Z,40.73
2022-08-20T12:42:10.793Z,40.12
2022-08-20T12:45:24.790Z,39.48
2022-08-20T12:48:14.226Z,39.83
2022-08-20T12:51:18.431Z,39.07
2022-08-20T12:54:03.610Z,40.04
2022-08-20T12:56:53.422Z,38.96
2022-08-20T12:59:37.226Z,38.44
2022-08-20T13:02:23.756Z,38.78
2022-08-20T13:05:18.888Z,38.65
2022-08-20T13:07:58.010Z,38.73
2022-08-20T13:10:53.637Z,39.27
2022-08-20T13:13:46.483Z,38.91
2022-08-20T13:16:45.737Z,38.26
2022-08-20T13:19:24.497Z,37.70
2022-08-20T13:22:07.940Z,36.43
2022-08-20T13:24:59.268Z,38.24
2022-08-20T13:27:41.571Z,37.94
2022-08-20T13:30:13.492Z,37.54
2022-08-20T13:33:09.390Z,37.77
2022-08-20T13:35:52.051Z,38.04
2022-08-20T13:38:37.404Z,37.85
2022-08-20T13:41:30.004Z,37.75
2022-08-20T13:44:11.659Z,38.50
2022-08-20T13:46:59.862Z,37.86
2022-08-20T13:50:07.249Z,38.13
2022-08-20T13:52:51.111Z,38.57
2022-08-20T13:55:44.468Z,38.63
2022-08-20T13:58:27.318Z,38.57
2022-08-20T14:01:24.418Z,38.97
2022-08-20T14:04:01.964Z,39.37
2022-08-20T14:06:51.494Z,39.12
2022-08-20T14:10:11.639Z,39.63
2022-08-20T14:12:49.910Z,39.67
2022-08-20T14:16:00.313Z,39.71
2022-08-20T14:18:27.748Z,38.85
2022-08-20T14:21:16.900Z,38.61
2022-08-20T14:24:05.824Z,38.53
2022-08-20T14:26:59.518Z,38.41
2022-08-20T14:29:39.491Z,38.83
2022-08-20T14:32:16.831Z,39.47
2022-08-20T14:34:56.559Z,39.54
2022-08-20T14:37:37.586Z,40.15
2022-08-20T14:40:28.042Z,39.83
2022-08-20T14:43:08.341Z,38.84
2022-08-20T14:45:44.942Z,39.21
2022-08-20T14:48:24.445Z,40.03
2022-08-20T14:51:18.021Z,40.55
2022-08-20T14:54:07.439Z,40.89
2022-08-20T14:56:40.433Z,41.39
2022-08-20T14:59:34.019Z,41.37
2022-08-20T15:02:14.137Z,41.98
2022-08-20T15:05:00.475Z,42.32
2022-08-20T15:07:32.536Z,42.81
2022-08-20T15:10:10.125Z,43.44
2022-08-20T15:12:54.244Z,43.30
2022-08-20T15:15:47.441Z,43.69
2022-08-20T15:18:18.908Z,44.40
2022-08-20T15:20:53.188Z,44.65
2022-08-20T15:23:57.055Z,44.93
2022-08-20T15:27:02.992Z,44.46
2022-08-20T15:29:55.103Z,44.70
2022-08-20T15:32:55.219Z,44.55
2022-08-20T15:35:26.945Z,44.67
2022-08-20T15:38:32.028Z,44.45
2022-08-20T15:41:25.006Z,44.03
2022-08-20T15:44:32.279Z,44.11
2022-08-20T15:47:54.698Z,44.45
2022-08-20T15:50:48.511Z,45.28
2022-08-20T15:53:42.100Z,45.27
2022-08-20T15:56:37.018Z,45.43
2022-08-20T15:59:24.569Z,45.76
2022-08-20T16:02:05.676Z,46.12
2022-08-20T16:05:07.948Z,46.36
2022-08-20T16:08:01.443Z,46.78
2022-08-20T16:11:21.847Z,46.82
2022-08-20T16:14:24.358Z,46.50
2022-08-20T16:17:03.508Z,47.09
2022-08-20T16:20:01.450Z,47.28
2022-08-20T16:22:53.257Z,47.57
2022-08-20T16:25:54.989Z,47.47
2022-08-20T16:28:48.695Z,47.73
2022-08-20T16:31:41.248Z,47.93
2022-08-20T16:34:33.628Z,48.28
2022-08-20T16:37:23.432Z,48.42
2022-08-20T16:40:12.237Z,48.61
2022-08-20T16:43:14.137Z,48.65
2022-08-20T16:46:20.195Z,48.87
2022-08-20T16:49:14.862Z,49.02
2022-08-20T16:52:05.488Z,49.12
2022-08-20T16:55:07.510Z,49.40
2022-08-20T16:58:05.765Z,49.41
2022-08-20T17:00:53.199Z,49.46
2022-08-20T17:03:42.142Z,49.88
2022-08-20T17:06:35.466Z,50.03
2022-08-20T17:09:23.965Z,50.25
2022-08-20T17:12:16.729Z,50.63
2022-08-20T17:15:15.631Z,50.96
2022-08-20T17:17:56.541Z,51.23
2022-08-20T17:21:22.233Z,51.50
2022-08-20T17:24:05.437Z,51.84
2022-08-20T17:27:10.449Z,51.87
2022-08-20T17:30:20.169Z,52.13
2022-08-20T17:33:04.511Z,52.31
2022-08-20T17:35:51.167Z,52.39
2022-08-20T17:38:39.949Z,52.69
2022-08-20T17:41:39.947Z,52.89
2022-08-20T17:44:24.866Z,52.93
2022-08-20T17:47:17.492Z,53.09
2022-08-20T17:50:22.186Z,53.23
2022-08-20T17:53:07.029Z,53.56
2022-08-20T17:55:38.680Z,53.78
2022-08-20T17:58:38.074Z,53.71
2022-08-20T18:01:34.061Z,54.11
2022-08-20T18:04:31.013Z,54.34
2022-08-20T18:07:35.330Z,54.82
2022-08-20T18:10:52.714Z,55.10
2022-08-20T18:13:26.125Z,55.27
2022-08-20T18:16:03.571Z,55.45
2022-08-20T18:18:59.988Z,55.98
2022-08-20T18:21:43.283Z,55.88
2022-08-20T18:24:41.161Z,56.41
2022-08-20T18:27:30.832Z,56.64
2022-08-20T18:30:20.782Z,57.11
2022-08-20T18:33:01.274Z,57.17
2022-08-20T18:35:48.541Z,57.29
2022-08-20T18:38:42.246Z,57.32
2022-08-20T18:41:46.481Z,57.79
2022-08-20T18:44:45.564Z,57.66
2022-08-20T18:47:48.198Z,58.18
2022-08-20T18:50:24.765Z,58.33
2022-08-20T18:53:09.924Z,58.39
2022-08-20T18:55:55.515Z,58.59
2022-08-20T18:58:31.086Z,58.56
2022-08-20T19:01:31.432Z,59.14
2022-08-20T19:05:02.117Z,59.00
2022-08-20T19:08:06.206Z,59.15
2022-08-20T19:11:08.595Z,59.41
2022-08-20T19:14:04.572Z,59.54
2022-08-20T19:16:55.554Z,59.57
2022-08-20T19:19:47.385Z,59.66
2022-08-20T19:22:43.135Z,59.51
2022-08-20T19:25:29.188Z,59.75
2022-08-20T19:28:20.202Z,59.97
2022-08-20T19:31:03.399Z,60.17
2022-08-20T19:34:19.925Z,60.14
2022-08-20T19:37:07.778Z,60.35
2022-08-20T19:40:43.671Z,60.47
2022-08-20T19:43:26.871Z,60.37
2022-08-20T19:46:02.095Z,60.63
2022-08-20T19:48:47.373Z,60.56
2022-08-20T19:51:37.356Z,60.80
2022-08-20T19:54:33.815Z,60.90
2022-08-20T19:57:08.089Z,60.90
2022-08-20T19:59:46.083Z,61.14
2022-08-20T20:02:25.919Z,60.76
2022-08-20T20:05:16.148Z,61.32
2022-08-20T20:08:17.758Z,61.53
2022-08-20T20:11:24.481Z,61.63
2022-08-20T20:14:30.555Z,61.57
2022-08-20T20:17:30.772Z,61.88
2022-08-20T20:20:21.788Z,62.08
2022-08-20T20:23:38.822Z,62.48
2022-08-20T20:26:48.768Z,62.71
2022-08-20T20:29:41.004Z,62.62
2022-08-20T20:32:41.473Z,62.57
2022-08-20T20:35:32.203Z,62.94
2022-08-20T20:38:16.045Z,63.07
2022-08-20T20:43:55.280Z,63.63
2022-08-20T20:46:28.107Z,63.64
2022-08-20T20:49:24.255Z,63.60
2022-08-20T20:52:18.399Z,63.65
2022-08-20T20:55:20.663Z,63.72
2022-08-20T20:58:00.296Z,64.31
2022-08-20T21:00:54.695Z,64.08
2022-08-20T21:03:46.706Z,64.15
2022-08-20T21:06:14.736Z,64.16
2022-08-20T21:09:10.160Z,64.30
2022-08-20T21:11:59.746Z,64.53
2022-08-20T21:14:58.028Z,64.69
2022-08-20T21:17:44.515Z,64.66
2022-08-20T21:20:18.496Z,64.96
2022-08-20T21:23:02.064Z,64.75
2022-08-20T21:25:41.766Z,64.83
2022-08-20T21:28:18.728Z,65.08
2022-08-20T21:30:51.791Z,65.30
2022-08-20T21:33:58.679Z,65.26
2022-08-20T21:36:39.834Z,65.45
2022-08-20T21:39:39.007Z,65.15
2022-08-20T21:42:37.463Z,64.98
2022-08-20T21:45:34.546Z,65.07
2022-08-20T21:48:09.586Z,65.20
2022-08-20T21:50:57.878Z,65.01
2022-08-20T21:53:52.023Z,65.28
2022-08-20T21:56:27.264Z,65.17
2022-08-20T21:59:15.904Z,65.29
2022-08-20T22:01:55.959Z,65.19
2022-08-20T22:04:51.373Z,65.37
2022-08-20T22:07:51.224Z,65.39
2022-08-20T22:10:30.094Z,65.69
2022-08-20T22:13:15.944Z,65.78
2022-08-20T22:15:56.685Z,65.91
2022-08-20T22:18:32.136Z,65.84
2022-08-20T22:21:12.308Z,65.82
2022-08-20T22:23:50.158Z,66.10
2022-08-20T22:26:23.574Z,66.09
2022-08-20T22:29:15.239Z,66.27
2022-08-20T22:32:19.392Z,66.32
2022-08-20T22:35:16.111Z,66.57
2022-08-20T22:37:52.088Z,66.40
2022-08-20T22:40:38.288Z,66.54
2022-08-20T22:43:55.848Z,66.72
2022-08-20T22:47:20.144Z,66.75
2022-08-20T22:50:00.766Z,66.99
2022-08-20T22:53:10.117Z,66.91
2022-08-20T22:59:20.766Z,67.34
2022-08-20T23:02:06.607Z,67.44
2022-08-20T23:05:10.875Z,67.52
2022-08-20T23:07:54.421Z,67.53
2022-08-20T23:10:34.734Z,67.72
2022-08-20T23:13:18.838Z,67.75
2022-08-20T23:16:06.420Z,68.24
2022-08-20T23:18:50.118Z,68.06
2022-08-20T23:21:53.780Z,68.15
2022-08-20T23:24:43.447Z,68.42
2022-08-20T23:27:31.102Z,68.70
2022-08-20T23:30:57.959Z,68.37
2022-08-20T23:33:56.611Z,68.48
2022-08-20T23:36:59.990Z,68.68
2022-08-20T23:39:47.363Z,68.57
2022-08-20T23:42:43.661Z,68.82
2022-08-20T23:45:39.808Z,69.16
2022-08-20T23:48:10.705Z,69.17
2022-08-20T23:50:56.576Z,69.44
2022-08-20T23:53:26.757Z,69.38
2022-08-20T23:56:07.444Z,69.62
2022-08-20T23:59:24.954Z,69.67
